createdAt,value
2023-03-08T00:01:36.786Z,98368.16
2023-03-08T00:04:05.096Z,98460.16
2023-03-08T00:06:36.030Z,98446.13
2023-03-08T00:09:05.684Z,98439.78
2023-03-08T00:11:35.630Z,98453.97
2023-03-08T00:14:04.264Z,98454.81
2023-03-08T00:16:32.492Z,98474.56
2023-03-08T00:19:01.830Z,98469.22
2023-03-08T00:21:30.089Z,98304.50
2023-03-08T00:23:58.673Z,98397.00
2023-03-08T00:26:26.972Z,98469.22
2023-03-08T00:28:59.947Z,98394.06
2023-03-08T00:31:28.656Z,98486.25
2023-03-08T00:33:59.282Z,98481.94
2023-03-08T00:36:27.716Z,98483.56
2023-03-08T00:38:57.463Z,98488.94
2023-03-08T00:41:26.122Z,98494.28
2023-03-08T00:43:54.730Z,98494.28
2023-03-08T00:46:25.705Z,98499.63
2023-03-08T00:48:54.666Z,98431.28
2023-03-08T00:51:23.553Z,98510.31
2023-03-08T00:53:52.204Z,98510.31
2023-03-08T00:56:21.278Z,98510.69
2023-03-08T00:58:49.875Z,98515.66
2023-03-08T01:01:20.039Z,98521.00
2023-03-08T01:03:50.057Z,98528.03
2023-03-08T01:06:18.662Z,98449.97
2023-03-08T01:08:47.115Z,98397.63
2023-03-08T01:11:21.764Z,98521.84
2023-03-08T01:13:50.829Z,98522.69
2023-03-08T01:16:21.996Z,98525.56
2023-03-08T01:18:52.494Z,98522.03
2023-03-08T01:21:20.954Z,98519.75
2023-03-08T01:23:49.617Z,98524.72
2023-03-08T01:26:22.267Z,98522.03
2023-03-08T01:28:51.947Z,98545.28
2023-03-08T01:31:23.267Z,98524.72
2023-03-08T01:33:53.603Z,98524.72
2023-03-08T01:36:24.207Z,98526.38
2023-03-08T01:38:53.527Z,98525.56
2023-03-08T01:41:24.252Z,98525.56
2023-03-08T01:43:53.716Z,98524.25
2023-03-08T01:46:26.828Z,98531.72
2023-03-08T01:49:03.388Z,98540.75
2023-03-08T01:51:38.400Z,98546.13
2023-03-08T01:54:10.840Z,98546.13
2023-03-08T01:56:42.458Z,98458.47
2023-03-08T01:59:12.013Z,98391.25
2023-03-08T02:01:41.048Z,98552.50
2023-03-08T02:04:12.696Z,98412.72
2023-03-08T02:06:41.341Z,98561.31
2023-03-08T02:09:09.638Z,98555.16
2023-03-08T02:11:40.580Z,98552.66
2023-03-08T02:14:08.804Z,98555.16
2023-03-08T02:16:37.304Z,98565.84
2023-03-08T02:19:12.318Z,98561.31
2023-03-08T02:21:42.653Z,98562.53
2023-03-08T02:24:21.723Z,98527.97
2023-03-08T02:26:52.353Z,98580.22
2023-03-08T02:29:20.902Z,98493.19
2023-03-08T02:31:50.329Z,98418.16
2023-03-08T02:34:21.451Z,98587.44
2023-03-08T02:36:49.677Z,98590.91
2023-03-08T02:39:20.241Z,98586.59
2023-03-08T02:41:48.723Z,98591.94
2023-03-08T02:44:17.880Z,98520.19
2023-03-08T02:46:46.556Z,98601.63
2023-03-08T02:49:16.851Z,98606.34
2023-03-08T02:51:47.110Z,98605.31
2023-03-08T02:54:16.987Z,98600.31
2023-03-08T02:56:48.367Z,98607.16
2023-03-08T02:59:17.264Z,98614.34
2023-03-08T03:01:46.663Z,98616.00
2023-03-08T03:04:15.089Z,98621.72
2023-03-08T03:06:43.319Z,98625.88
2023-03-08T03:09:12.943Z,98630.41
2023-03-08T03:11:42.478Z,98629.06
2023-03-08T03:14:12.197Z,98629.75
2023-03-08T03:16:40.349Z,98647.25
2023-03-08T03:19:08.451Z,98653.44
2023-03-08T03:21:36.570Z,98653.44
2023-03-08T03:24:04.754Z,98647.25
2023-03-08T03:26:32.964Z,98657.16
2023-03-08T03:29:01.605Z,98649.13
2023-03-08T03:31:31.287Z,98654.47
2023-03-08T03:34:00.476Z,98662.50
2023-03-08T03:36:28.840Z,98657.16
2023-03-08T03:38:57.092Z,98646.44
2023-03-08T03:41:25.479Z,98591.97
2023-03-08T03:43:54.204Z,98664.16
2023-03-08T03:46:23.432Z,98526.53
2023-03-08T03:48:53.010Z,98663.63
2023-03-08T03:51:22.841Z,98666.81
2023-03-08T03:53:51.143Z,98664.16
2023-03-08T03:56:20.701Z,98664.16
2023-03-08T03:58:48.971Z,98669.50
2023-03-08T04:01:21.084Z,98674.84
2023-03-08T04:03:49.712Z,98683.88
2023-03-08T04:06:20.572Z,98682.88
2023-03-08T04:08:49.299Z,98544.22
2023-03-08T04:11:19.835Z,98560.19
2023-03-08T04:13:48.131Z,98692.91
2023-03-08T04:16:18.538Z,98699.09
2023-03-08T04:18:47.010Z,98699.09
2023-03-08T04:21:15.896Z,98699.94
2023-03-08T04:23:45.429Z,98694.59
2023-03-08T04:26:13.735Z,98699.94
2023-03-08T04:28:42.109Z,98699.94
2023-03-08T04:31:15.090Z,98696.59
2023-03-08T04:33:43.346Z,98710.63
2023-03-08T04:36:11.695Z,98708.94
2023-03-08T04:38:40.746Z,98716.97
2023-03-08T04:41:12.262Z,98715.97
2023-03-08T04:43:41.238Z,98704.00
2023-03-08T04:46:10.227Z,98734.88
2023-03-08T04:48:38.822Z,98728.69
2023-03-08T04:51:08.967Z,98733.84
2023-03-08T04:53:39.567Z,98735.69
2023-03-08T04:56:10.235Z,98572.53
2023-03-08T04:58:39.064Z,98647.88
2023-03-08T05:01:11.515Z,98734.88
2023-03-08T05:03:39.598Z,98721.38
2023-03-08T05:06:08.738Z,98647.19
2023-03-08T05:08:37.362Z,98735.69
2023-03-08T05:11:05.903Z,98740.22
2023-03-08T05:13:37.027Z,98747.22
2023-03-08T05:16:06.880Z,98751.72
2023-03-08T05:18:35.594Z,98743.53
2023-03-08T05:21:06.534Z,98639.53
2023-03-08T05:23:35.008Z,98747.22
2023-03-08T05:26:05.038Z,98741.03
2023-03-08T05:28:37.177Z,98745.41
2023-03-08T05:31:07.522Z,98750.38
2023-03-08T05:33:36.069Z,98669.38
2023-03-08T05:36:05.177Z,98758.41
2023-03-08T05:38:33.728Z,98760.78
2023-03-08T05:41:03.599Z,98758.75
2023-03-08T05:43:32.000Z,98752.41
2023-03-08T05:46:03.807Z,98760.41
2023-03-08T05:48:32.989Z,98748.41
2023-03-08T05:51:05.601Z,98677.22
2023-03-08T05:53:33.934Z,98758.59
2023-03-08T05:56:09.726Z,98769.78
2023-03-08T05:58:38.066Z,98769.47
2023-03-08T06:01:17.001Z,98775.84
2023-03-08T06:03:45.117Z,98776.19
2023-03-08T06:06:14.114Z,98770.84
2023-03-08T06:08:42.511Z,98770.84
2023-03-08T06:11:11.215Z,98783.19
2023-03-08T06:13:39.616Z,98782.53
2023-03-08T06:16:08.638Z,98786.03
2023-03-08T06:18:39.572Z,98781.53
2023-03-08T06:21:09.767Z,98784.41
2023-03-08T06:23:37.876Z,98714.34
2023-03-08T06:26:07.531Z,98789.38
2023-03-08T06:28:35.916Z,98788.53
2023-03-08T06:31:04.784Z,98793.91
2023-03-08T06:33:34.820Z,98783.19
2023-03-08T06:36:06.420Z,98783.19
2023-03-08T06:38:36.968Z,98788.53
2023-03-08T06:41:05.867Z,98793.53
2023-03-08T06:43:33.997Z,98797.22
2023-03-08T06:46:05.675Z,98798.88
2023-03-08T06:48:34.697Z,98797.06
2023-03-08T06:51:04.679Z,98797.59
2023-03-08T06:53:33.262Z,98791.28
2023-03-08T06:56:03.170Z,98809.34
2023-03-08T06:58:31.720Z,98797.00
2023-03-08T07:01:00.617Z,98800.31
2023-03-08T07:03:29.164Z,98805.28
2023-03-08T07:06:00.247Z,98812.28
2023-03-08T07:08:29.924Z,98815.63
2023-03-08T07:10:58.554Z,98817.28
2023-03-08T07:13:26.831Z,98819.97
2023-03-08T07:15:55.127Z,98829.66
2023-03-08T07:18:23.228Z,98833.16
2023-03-08T07:20:54.094Z,98831.31
2023-03-08T07:23:22.142Z,98833.81
2023-03-08T07:25:51.851Z,98826.34
2023-03-08T07:28:19.952Z,98829.31
2023-03-08T07:30:49.376Z,98839.00
2023-03-08T07:33:18.148Z,98830.97
2023-03-08T07:35:46.287Z,98829.97
2023-03-08T07:38:14.539Z,98832.63
2023-03-08T07:40:42.761Z,98834.66
2023-03-08T07:43:12.344Z,98836.31
2023-03-08T07:45:41.798Z,98832.16
2023-03-08T07:48:09.821Z,98835.38
2023-03-08T07:50:38.488Z,98847.88
2023-03-08T07:53:07.914Z,98842.34
2023-03-08T07:55:36.065Z,98851.19
2023-03-08T07:58:04.268Z,98849.16
2023-03-08T08:00:34.148Z,98753.44
2023-03-08T08:03:02.383Z,98857.19
2023-03-08T08:05:30.648Z,98859.03
2023-03-08T08:07:58.956Z,98853.91
2023-03-08T08:10:27.153Z,98793.44
2023-03-08T08:12:55.317Z,98866.06
2023-03-08T08:15:25.370Z,98873.09
2023-03-08T08:17:55.066Z,98797.47
2023-03-08T08:20:23.195Z,98878.44
2023-03-08T08:22:53.461Z,98884.63
2023-03-08T08:25:22.120Z,98889.81
2023-03-08T08:27:51.469Z,98892.47
2023-03-08T08:30:19.996Z,98885.44
2023-03-08T08:32:48.304Z,98799.50
2023-03-08T08:35:17.994Z,98897.84
2023-03-08T08:37:46.157Z,98736.19
2023-03-08T08:40:14.606Z,98899.84
2023-03-08T08:42:42.755Z,98897.00
2023-03-08T08:45:11.972Z,98906.50
2023-03-08T08:47:40.091Z,98903.19
2023-03-08T08:50:08.783Z,98896.81
2023-03-08T08:52:38.879Z,98900.50
2023-03-08T08:55:07.632Z,98888.78
2023-03-08T08:57:36.354Z,98909.16
2023-03-08T09:00:08.366Z,98904.84
2023-03-08T09:02:36.658Z,98747.56
2023-03-08T09:05:05.032Z,98905.69
2023-03-08T09:07:33.275Z,98904.50
2023-03-08T09:10:02.809Z,98902.84
2023-03-08T09:12:31.292Z,98909.00
2023-03-08T09:15:00.124Z,98901.16
2023-03-08T09:17:28.309Z,98906.16
2023-03-08T09:19:56.513Z,98899.97
2023-03-08T09:22:24.670Z,98906.16
2023-03-08T09:24:52.937Z,98906.16
2023-03-08T09:27:22.555Z,98893.78
2023-03-08T09:29:50.915Z,98712.00
2023-03-08T09:32:19.091Z,98909.50
2023-03-08T09:34:47.354Z,98914.84
2023-03-08T09:37:15.543Z,98903.28
2023-03-08T09:39:43.708Z,98911.16
2023-03-08T09:42:20.951Z,98801.53
2023-03-08T09:45:07.681Z,98912.84
2023-03-08T09:47:46.648Z,98913.19
2023-03-08T09:50:29.241Z,98909.50
2023-03-08T09:53:01.384Z,98914.84
2023-03-08T09:55:32.973Z,98916.50
2023-03-08T09:58:06.159Z,98925.53
2023-03-08T10:00:38.302Z,98836.69
2023-03-08T10:03:36.518Z,98921.84
2023-03-08T10:06:15.165Z,98924.53
2023-03-08T10:08:54.776Z,98930.88
2023-03-08T10:11:29.700Z,98925.53
2023-03-08T10:14:02.152Z,98932.53
2023-03-08T10:16:36.810Z,98944.94
2023-03-08T10:19:12.369Z,98941.41
2023-03-08T10:21:43.397Z,98934.22
2023-03-08T10:24:16.961Z,98786.44
2023-03-08T10:26:46.076Z,98851.88
2023-03-08T10:29:16.316Z,98950.47
2023-03-08T10:31:47.459Z,98860.22
2023-03-08T10:34:18.661Z,98954.28
2023-03-08T10:36:52.795Z,98950.97
2023-03-08T10:39:22.312Z,98946.78
2023-03-08T10:41:57.272Z,98951.31
2023-03-08T10:44:40.512Z,98949.63
2023-03-08T10:47:22.496Z,98956.00
2023-03-08T10:49:51.970Z,98962.34
2023-03-08T10:52:27.889Z,98787.97
2023-03-08T10:55:03.470Z,98867.28
2023-03-08T10:57:32.161Z,98964.34
2023-03-08T11:00:07.742Z,98966.34
2023-03-08T11:02:38.759Z,98971.50
2023-03-08T11:05:20.015Z,98974.19
2023-03-08T11:07:53.953Z,98971.34
2023-03-08T11:10:24.933Z,98879.69
2023-03-08T11:13:06.043Z,98963.50
2023-03-08T11:15:38.777Z,98968.03
2023-03-08T11:18:28.589Z,98958.03
2023-03-08T11:21:03.547Z,98967.19
2023-03-08T11:23:38.971Z,98971.69
2023-03-08T11:26:20.859Z,98965.03
2023-03-08T11:29:02.552Z,98968.38
2023-03-08T11:31:38.157Z,98975.22
2023-03-08T11:34:51.068Z,98907.38
2023-03-08T11:37:32.291Z,98976.41
2023-03-08T11:40:08.814Z,98981.22
2023-03-08T11:42:53.836Z,98879.16
2023-03-08T11:45:27.510Z,98976.38
2023-03-08T11:48:20.476Z,98974.38
2023-03-08T11:50:53.110Z,98983.06
2023-03-08T11:53:32.849Z,98897.16
2023-03-08T11:56:35.541Z,98970.69
2023-03-08T11:59:08.421Z,98982.72
2023-03-08T12:01:42.503Z,98967.38
2023-03-08T12:04:17.504Z,98984.38
2023-03-08T12:06:47.753Z,98980.69
2023-03-08T12:09:27.343Z,98977.03
2023-03-08T12:12:03.344Z,98972.66
2023-03-08T12:14:34.004Z,98824.63
2023-03-08T12:17:10.572Z,98975.34
2023-03-08T12:19:43.702Z,98983.19
2023-03-08T12:22:31.254Z,98819.97
2023-03-08T12:25:09.935Z,98982.72
2023-03-08T12:27:46.152Z,98986.03
2023-03-08T12:30:22.094Z,98977.38
2023-03-08T12:32:52.348Z,98978.19
2023-03-08T12:35:30.064Z,98982.38
2023-03-08T12:38:00.360Z,98979.69
2023-03-08T12:40:39.841Z,98978.69
2023-03-08T12:43:12.130Z,98975.00
2023-03-08T12:45:41.640Z,98982.03
2023-03-08T12:48:23.514Z,98972.50
2023-03-08T12:51:05.848Z,98982.03
2023-03-08T12:53:38.964Z,98980.34
2023-03-08T12:56:24.587Z,98978.00
2023-03-08T12:58:54.863Z,98982.66
2023-03-08T13:01:43.287Z,98983.97
2023-03-08T13:04:40.497Z,98986.47
2023-03-08T13:07:27.736Z,98982.31
2023-03-08T13:10:06.043Z,98991.00
2023-03-08T13:13:07.226Z,98983.97
2023-03-08T13:15:35.742Z,98976.94
2023-03-08T13:18:12.574Z,98973.59
2023-03-08T13:21:02.366Z,98982.97
2023-03-08T13:23:37.468Z,98981.28
2023-03-08T13:26:25.248Z,98998.34
2023-03-08T13:28:57.265Z,98993.00
2023-03-08T13:31:30.088Z,98993.00
2023-03-08T13:33:59.451Z,98989.66
2023-03-08T13:36:29.034Z,98982.66
2023-03-08T13:39:00.190Z,98984.31
2023-03-08T13:41:46.600Z,98860.66
2023-03-08T13:44:19.136Z,98987.16
2023-03-08T13:46:50.806Z,98983.66
2023-03-08T13:49:23.311Z,98994.38
2023-03-08T13:51:55.362Z,98910.78
2023-03-08T13:54:31.599Z,98905.31
2023-03-08T13:57:02.935Z,98990.34
2023-03-08T13:59:34.251Z,98984.66
2023-03-08T14:02:02.983Z,98836.47
2023-03-08T14:04:32.856Z,98916.97
2023-03-08T14:07:02.518Z,98995.34
2023-03-08T14:09:30.716Z,98992.03
2023-03-08T14:12:05.775Z,98994.38
2023-03-08T14:14:37.825Z,98985.50
2023-03-08T14:17:06.495Z,98988.19
2023-03-08T14:19:38.625Z,98983.00
2023-03-08T14:22:14.128Z,98981.97
2023-03-08T14:24:45.757Z,98990.00
2023-03-08T14:27:34.598Z,98850.28
2023-03-08T14:30:13.218Z,98916.63
2023-03-08T14:32:42.839Z,98819.97
2023-03-08T14:35:23.508Z,98986.69
2023-03-08T14:37:56.888Z,98986.69
2023-03-08T14:40:31.576Z,98981.34
2023-03-08T14:43:06.424Z,98981.34
2023-03-08T14:45:38.244Z,98895.94
2023-03-08T14:48:25.867Z,98958.81
2023-03-08T14:50:59.659Z,98974.28
2023-03-08T14:53:31.977Z,98814.97
2023-03-08T14:56:01.732Z,98976.00
2023-03-08T14:58:31.933Z,98983.34
2023-03-08T15:01:03.927Z,98977.81
2023-03-08T15:03:33.209Z,98985.84
2023-03-08T15:06:09.097Z,98981.34
2023-03-08T15:08:38.463Z,98979.66
2023-03-08T15:11:10.722Z,98973.50
2023-03-08T15:13:39.928Z,98903.28
2023-03-08T15:16:14.354Z,98915.31
2023-03-08T15:18:43.898Z,98983.34
2023-03-08T15:21:15.820Z,98984.19
2023-03-08T15:23:45.082Z,98894.97
2023-03-08T15:26:18.805Z,98834.00
2023-03-08T15:28:47.085Z,98988.69
2023-03-08T15:31:18.860Z,98984.19
2023-03-08T15:33:47.173Z,98988.69
2023-03-08T15:36:17.964Z,98983.34
2023-03-08T15:38:47.221Z,98893.63
2023-03-08T15:41:16.991Z,98918.63
2023-03-08T15:43:45.326Z,98909.47
2023-03-08T15:46:14.981Z,98988.69
2023-03-08T15:48:45.757Z,98996.72
2023-03-08T15:51:19.719Z,99007.41
2023-03-08T15:53:48.404Z,98997.75
2023-03-08T15:56:17.420Z,98990.69
2023-03-08T15:58:45.666Z,98913.16
2023-03-08T16:01:13.854Z,98984.03
2023-03-08T16:03:42.576Z,98995.06
2023-03-08T16:06:13.030Z,98986.19
2023-03-08T16:08:42.615Z,98985.34
2023-03-08T16:11:12.498Z,98992.38
2023-03-08T16:13:40.629Z,98904.81
2023-03-08T16:16:09.569Z,98898.97
2023-03-08T16:18:40.551Z,98991.53
2023-03-08T16:21:10.190Z,98996.88
2023-03-08T16:23:41.820Z,98990.69
2023-03-08T16:26:16.327Z,98859.84
2023-03-08T16:28:46.962Z,98995.41
2023-03-08T16:31:16.082Z,99006.75
2023-03-08T16:33:44.328Z,98998.72
2023-03-08T16:36:13.276Z,99006.75
2023-03-08T16:38:43.067Z,98978.88
2023-03-08T16:41:14.177Z,99006.75
2023-03-08T16:43:47.792Z,99005.94
2023-03-08T16:46:18.990Z,99005.94
2023-03-08T16:48:49.430Z,99009.59
2023-03-08T16:51:19.447Z,99010.44
2023-03-08T16:53:49.393Z,98903.19
2023-03-08T16:56:22.811Z,99016.63
2023-03-08T16:58:52.141Z,99015.78
2023-03-08T17:01:21.316Z,99016.81
2023-03-08T17:03:49.482Z,99014.13
2023-03-08T17:06:19.942Z,99015.78
2023-03-08T17:08:50.477Z,99020.28
2023-03-08T17:11:19.216Z,98935.69
2023-03-08T17:13:51.074Z,98865.03
2023-03-08T17:16:20.088Z,99020.47
2023-03-08T17:18:48.693Z,99014.13
2023-03-08T17:21:17.185Z,99019.47
2023-03-08T17:23:45.582Z,99020.28
2023-03-08T17:26:16.433Z,99015.78
2023-03-08T17:28:45.003Z,99019.47
2023-03-08T17:31:15.257Z,99022.16
2023-03-08T17:33:43.934Z,99024.84
2023-03-08T17:36:14.559Z,99020.47
2023-03-08T17:38:43.625Z,99017.78
2023-03-08T17:41:15.486Z,98947.06
2023-03-08T17:43:45.201Z,99021.31
2023-03-08T17:46:15.167Z,99011.81
2023-03-08T17:48:43.880Z,99018.63
2023-03-08T17:51:14.357Z,99021.31
2023-03-08T17:53:43.239Z,99017.78
2023-03-08T17:56:13.326Z,98846.84
2023-03-08T17:58:41.868Z,99002.78
2023-03-08T18:01:14.885Z,99026.84
2023-03-08T18:03:43.094Z,99013.47
2023-03-08T18:06:19.561Z,99016.97
2023-03-08T18:08:47.931Z,99011.97
2023-03-08T18:11:16.189Z,99017.16
2023-03-08T18:13:44.411Z,99012.44
2023-03-08T18:16:14.099Z,98937.72
2023-03-08T18:18:42.277Z,98947.06
2023-03-08T18:21:14.031Z,99010.78
2023-03-08T18:23:43.428Z,99016.13
2023-03-08T18:26:12.690Z,99009.13
2023-03-08T18:28:40.957Z,99016.13
2023-03-08T18:31:10.624Z,99013.63
2023-03-08T18:33:40.355Z,99023.16
2023-03-08T18:36:08.804Z,99021.50
2023-03-08T18:38:37.533Z,98859.34
2023-03-08T18:41:16.271Z,99023.50
2023-03-08T18:43:45.311Z,99022.50
2023-03-08T18:46:14.961Z,99025.19
2023-03-08T18:48:47.552Z,99014.81
2023-03-08T18:51:16.664Z,99016.13
2023-03-08T18:53:44.931Z,99021.50
2023-03-08T18:56:13.085Z,99021.50
2023-03-08T18:58:41.492Z,99019.81
2023-03-08T19:01:13.079Z,99017.16
2023-03-08T19:03:42.061Z,99016.97
2023-03-08T19:06:13.014Z,99013.47
2023-03-08T19:08:41.962Z,98853.38
2023-03-08T19:11:14.892Z,99016.13
2023-03-08T19:13:43.411Z,98979.75
2023-03-08T19:16:20.264Z,99014.47
2023-03-08T19:18:49.365Z,99012.78
2023-03-08T19:21:20.967Z,99010.13
2023-03-08T19:23:50.023Z,99013.63
2023-03-08T19:26:39.577Z,99011.13
2023-03-08T19:29:10.064Z,99008.63
2023-03-08T19:31:40.622Z,99011.97
2023-03-08T19:34:10.640Z,99034.19
2023-03-08T19:36:40.810Z,99011.13
2023-03-08T19:39:10.707Z,98991.72
2023-03-08T19:41:38.823Z,99005.78
2023-03-08T19:44:08.130Z,99001.13
2023-03-08T19:46:37.288Z,98927.38
2023-03-08T19:49:07.772Z,99002.09
2023-03-08T19:51:36.762Z,99017.31
2023-03-08T19:54:07.174Z,99011.13
2023-03-08T19:56:35.703Z,99011.13
2023-03-08T19:59:03.956Z,99012.78
2023-03-08T20:01:32.351Z,99018.13
2023-03-08T20:04:00.875Z,99010.13
2023-03-08T20:06:32.513Z,99005.78
2023-03-08T20:09:02.162Z,99018.13
2023-03-08T20:11:35.355Z,98851.72
2023-03-08T20:14:04.402Z,99023.50
2023-03-08T20:16:37.562Z,99020.81
2023-03-08T20:19:06.050Z,99018.13
2023-03-08T20:21:35.462Z,99012.78
2023-03-08T20:24:04.202Z,99022.84
2023-03-08T20:26:38.113Z,98954.09
2023-03-08T20:29:07.510Z,99028.84
2023-03-08T20:31:35.787Z,99017.16
2023-03-08T20:34:04.088Z,98942.41
2023-03-08T20:36:33.287Z,99024.50
2023-03-08T20:39:01.776Z,98859.72
2023-03-08T20:41:31.733Z,99027.53
2023-03-08T20:44:02.167Z,99023.84
2023-03-08T20:46:33.715Z,98926.41
2023-03-08T20:49:02.630Z,98960.25
2023-03-08T20:51:30.999Z,98992.44
2023-03-08T20:54:02.812Z,99021.81
2023-03-08T20:56:32.505Z,99023.84
2023-03-08T20:59:06.600Z,99020.84
2023-03-08T21:01:37.972Z,99032.53
2023-03-08T21:04:08.994Z,98860.03
2023-03-08T21:06:37.266Z,99032.88
2023-03-08T21:09:05.668Z,98860.66
2023-03-08T21:11:36.816Z,99022.84
2023-03-08T21:14:09.351Z,99013.47
2023-03-08T21:16:37.863Z,99027.19
2023-03-08T21:19:09.021Z,99013.00
2023-03-08T21:21:39.674Z,99025.53
2023-03-08T21:24:09.885Z,99022.84
2023-03-08T21:26:38.267Z,99016.47
2023-03-08T21:29:09.822Z,99022.84
2023-03-08T21:31:41.652Z,99026.50
2023-03-08T21:34:10.730Z,99013.97
2023-03-08T21:36:39.918Z,99013.13
2023-03-08T21:39:10.149Z,99013.13
2023-03-08T21:41:41.296Z,99007.94
2023-03-08T21:44:14.098Z,99011.47
2023-03-08T21:46:43.122Z,99014.81
2023-03-08T21:49:23.623Z,99019.31
2023-03-08T21:51:53.543Z,99031.84
2023-03-08T21:54:23.056Z,98990.09
2023-03-08T21:56:51.866Z,98937.41
2023-03-08T21:59:24.187Z,99014.81
2023-03-08T22:01:54.223Z,99014.81
2023-03-08T22:04:23.335Z,99002.78
2023-03-08T22:06:51.585Z,99015.81
2023-03-08T22:09:19.842Z,99018.47
2023-03-08T22:11:48.669Z,99018.47
2023-03-08T22:14:17.057Z,99020.84
2023-03-08T22:16:47.041Z,98948.75
2023-03-08T22:19:15.204Z,99024.69
2023-03-08T22:21:43.762Z,98926.88
2023-03-08T22:24:11.970Z,98992.72
2023-03-08T22:26:40.258Z,99012.31
2023-03-08T22:29:08.486Z,99016.81
2023-03-08T22:31:36.709Z,99016.81
2023-03-08T22:34:08.181Z,99013.97
2023-03-08T22:36:36.522Z,98948.75
2023-03-08T22:39:05.069Z,99015.81
2023-03-08T22:41:33.388Z,99011.81
2023-03-08T22:44:04.153Z,99014.81
2023-03-08T22:46:32.402Z,99002.78
2023-03-08T22:49:05.194Z,99010.47
2023-03-08T22:51:36.563Z,98848.34
2023-03-08T22:54:06.037Z,98940.06
2023-03-08T22:56:35.208Z,98934.72
2023-03-08T22:59:04.515Z,98854.53
2023-03-08T23:01:33.776Z,98975.44
2023-03-08T23:04:05.502Z,98936.38
2023-03-08T23:06:36.331Z,99020.97
2023-03-08T23:09:07.551Z,99026.34
2023-03-08T23:11:37.681Z,99012.16
2023-03-08T23:14:06.683Z,99022.16
2023-03-08T23:16:36.208Z,99013.13
2023-03-08T23:19:04.863Z,99023.84
2023-03-08T23:21:37.853Z,99014.47
2023-03-08T23:24:06.856Z,99023.84
2023-03-08T23:26:36.165Z,99023.84
2023-03-08T23:29:05.173Z,99018.47
2023-03-08T23:31:36.062Z,99011.47
2023-03-08T23:34:05.494Z,99020.34
2023-03-08T23:36:35.968Z,99012.50
2023-03-08T23:39:04.755Z,98947.75
2023-03-08T23:41:34.161Z,99006.47
2023-03-08T23:44:02.813Z,99015.63
2023-03-08T23:46:31.777Z,99014.81
2023-03-08T23:49:01.630Z,98965.28
2023-03-08T23:51:32.433Z,99018.47
2023-03-08T23:54:03.415Z,99015.63
2023-03-08T23:56:38.356Z,99009.47
2023-03-08T23:59:09.538Z,99017.50
